WetterOnline ( http://www.wetteronline.de )

Wetter aktuell Kappeln

Aktuelles Wetter: Schönhagen (Ostseebad) (2m)

6-stündlich | Neueste Meldungen
Ortszeit Temperatur Wetter
Mo, 18.02. 19:00 7.9° C wolkig
Mo, 18.02. 13:00 11.4° C wolkenlos
Mo, 18.02. 7:00 3.5° C wolkenlos
Mo, 18.02. 1:00 4.0° C wolkig
So, 17.02. 19:00 5.3° C wolkenlos
So, 17.02. 13:00 9.4° C leicht bewölkt
So, 17.02. 7:00 8.0° C bedeckt
So, 17.02. 1:00 7.9° C bewölkt
Ortszeit Temperatur Wetter
Mo, 18.02. 20:30 7.5° C leicht bewölkt
Mo, 18.02. 20:20 7.5° C leicht bewölkt
Mo, 18.02. 20:10 8.5° C wolkenlos
Mo, 18.02. 20:00 8.5° C fast wolkenlos
Mo, 18.02. 19:50 8.5° C fast wolkenlos
Mo, 18.02. 19:40 7.4° C fast wolkenlos
Mo, 18.02. 19:30 6.5° C leicht bewölkt
Mo, 18.02. 19:00 7.9° C wolkig
Mo, 18.02. 18:30 7.4° C wolkig
Mo, 18.02. 18:00 9.9° C leicht bewölkt
Mo, 18.02. 17:30 10.6° C wolkenlos
Ortszeit Relative Feuchte Sichtweite
Mo, 18.02. 19:00 81% 20 km
Mo, 18.02. 13:00 72% 20 km
Mo, 18.02. 7:00 82% 13 km
Mo, 18.02. 1:00 91% 6 km
So, 17.02. 19:00 93% 5.0 km
So, 17.02. 13:00 82% 10 km
So, 17.02. 7:00 91% 4.6 km
So, 17.02. 1:00 89% 5.0 km
Ortszeit Relative Feuchte Sichtweite
Mo, 18.02. 20:30 78% 16 km
Mo, 18.02. 20:20 78% -
Mo, 18.02. 20:10 75% -
Mo, 18.02. 20:00 78% 12 km
Mo, 18.02. 19:50 78% -
Mo, 18.02. 19:40 82% -
Mo, 18.02. 19:30 86% 17 km
Mo, 18.02. 19:00 81% 20 km
Mo, 18.02. 18:30 88% 19 km
Mo, 18.02. 18:00 79% 22 km
Mo, 18.02. 17:30 77% 20 km
Ortszeit Niederschlagsmenge Niederschlagsart
Mo, 18.02. 19:00 0.0 l/m2 in 12 Std. -
Mo, 18.02. 13:00 0.0 l/m2 in 6 Std. -
Mo, 18.02. 7:00 0.0 l/m2 in 12 Std. -
Mo, 18.02. 1:00 0.0 l/m2 in 6 Std. -
So, 17.02. 19:00 0.0 l/m2 in 12 Std. -
So, 17.02. 13:00 0.0 l/m2 in 6 Std. -
So, 17.02. 7:00 0.0 l/m2 in 12 Std. -
So, 17.02. 1:00 0.0 l/m2 in 6 Std. -
Ortszeit Niederschlagsmenge Niederschlagsart
Mo, 18.02. 20:30 0.0 l/m2 in 1 Std. -
Mo, 18.02. 20:20 keine Meldung -
Mo, 18.02. 20:10 keine Meldung -
Mo, 18.02. 20:00 0.0 l/m2 in 1 Std. -
Mo, 18.02. 19:50 keine Meldung -
Mo, 18.02. 19:40 keine Meldung -
Mo, 18.02. 19:30 0.0 l/m2 in 1 Std. -
Mo, 18.02. 19:00 0.0 l/m2 in 1 Std. -
Mo, 18.02. 18:30 0.0 l/m2 in 1 Std. -
Mo, 18.02. 18:00 0.0 l/m2 in 1 Std. -
Mo, 18.02. 17:30 0.0 l/m2 in 1 Std. -
Ortszeit Stärke Spitze Richtung
km/h Bft. km/h Grad Sektor
Mo, 18.02. 19:00 9 2 26 180° S
Mo, 18.02. 13:00 18 3 29 220° SW
Mo, 18.02. 7:00 13 3 17 210° SW
Mo, 18.02. 1:00 6 1 26 180° S
So, 17.02. 19:00 17 3 20 130° SO
So, 17.02. 13:00 11 2 15 150° SO
So, 17.02. 7:00 9 2 22 220° SW
So, 17.02. 1:00 13 3 31 260° W
Ortszeit Stärke Spitze Richtung
km/h Bft. km/h Grad Sektor
Mo, 18.02. 20:30 11 2 14 200° S
Mo, 18.02. 20:20 11 2 - 200° S
Mo, 18.02. 20:10 13 3 - 190° S
Mo, 18.02. 20:00 11 2 18 190° S
Mo, 18.02. 19:50 11 2 - 190° S
Mo, 18.02. 19:40 11 2 - 190° S
Mo, 18.02. 19:30 7 2 11 170° S
Mo, 18.02. 19:00 9 2 13 180° S
Mo, 18.02. 18:30 7 2 11 170° S
Mo, 18.02. 18:00 7 2 11 190° S
Mo, 18.02. 17:30 7 2 11 200° S
Ortszeit Untergrenze Bedeckung Gattung
total tief tief mittel hoch
Mo, 18.02. 19:00 9000 m 8/8 0/8 - - -
Mo, 18.02. 13:00 - 0/8 0/8 - - -
Mo, 18.02. 7:00 - 0/8 0/8 - - -
Mo, 18.02. 1:00 9000 m 8/8 0/8 - - -
So, 17.02. 19:00 10500 m 0/8 0/8 - - -
So, 17.02. 13:00 660 m 3/8 3/8 - - -
So, 17.02. 7:00 540 m 8/8 8/8 - - -
So, 17.02. 1:00 870 m 7/8 7/8 - - -
Ortszeit Bedeckungsgrad in Achtel und Wolkenuntergrenze
Mo, 18.02. 20:30 3(9000m)
Mo, 18.02. 20:20 3(9000m)
Mo, 18.02. 20:10 keine Wolken
Mo, 18.02. 20:00 1(10500m)
Mo, 18.02. 19:50 1(10500m)
Mo, 18.02. 19:40 1(9000m) 2(10500m)
Mo, 18.02. 19:30 3(9000m) 5(10500m)
Mo, 18.02. 19:00 7(9000m) 8(9000m)
Mo, 18.02. 18:30 8(9000m) 8(10500m)
Mo, 18.02. 18:00 3(8700m) 5(10500m) 6(10500m)
Mo, 18.02. 17:30 1(8700m) 3(10500m)
Ortszeit Luftdruck NN (hPa) Tendenz (hPa in 3 Std.)
Mo, 18.02. 19:00 1014 - 1,3
Mo, 18.02. 13:00 1016 - 1,3
Mo, 18.02. 7:00 1017 - 0,5
Mo, 18.02. 1:00 1019 - 0,8
So, 17.02. 19:00 1020 - 0,6
So, 17.02. 13:00 1022 - 0,6
So, 17.02. 7:00 1023 0,0
So, 17.02. 1:00 1023 + 0,5
Ortszeit Luftdruck NN (hPa) Tendenz (hPa in 3 Std.)
Mo, 18.02. 20:30 1013 - 1,2
Mo, 18.02. 20:20 1013 keine Meldung
Mo, 18.02. 20:10 1013 keine Meldung
Mo, 18.02. 20:00 1013 - 1,3
Mo, 18.02. 19:50 1013 keine Meldung
Mo, 18.02. 19:40 1013 keine Meldung
Mo, 18.02. 19:30 1014 - 1,3
Mo, 18.02. 19:00 1014 - 1,3
Mo, 18.02. 18:30 1014 - 1,2
Mo, 18.02. 18:00 1014 - 1,2
Mo, 18.02. 17:30 1014 - 1,3
Ortszeit Schneehöhe (cm)
Mo, 18.02. 19:00 0
Mo, 18.02. 13:00 0
Mo, 18.02. 7:00 0
Mo, 18.02. 1:00 0
So, 17.02. 19:00 0
So, 17.02. 13:00 0
So, 17.02. 7:00 0
So, 17.02. 1:00 0
Ortszeit Schneehöhe (cm)
Mo, 18.02. 20:30 0
Mo, 18.02. 20:20 0
Mo, 18.02. 20:10 0
Mo, 18.02. 20:00 0
Mo, 18.02. 19:50 0
Mo, 18.02. 19:40 0
Mo, 18.02. 19:30 0
Mo, 18.02. 19:00 0
Mo, 18.02. 18:30 0
Mo, 18.02. 18:00 0
Mo, 18.02. 17:30 0
Link zu dieser Seite / Seite empfehlen

Das Wetter in ...